<?xml version="1.0" encoding="UTF-8"?><gpx creator="Wikiloc - https://www.wikiloc.com" version="1.1" xmlns="http://www.topografix.com/GPX/1/1" xmlns:xsi="http://www.w3.org/2001/XMLSchema-instance" xsi:schemaLocation="http://www.topografix.com/GPX/1/1 http://www.topografix.com/GPX/1/1/gpx.xsd"><metadata><name>Wikiloc - Pedaleando el Románico con Jesús Calleja larga</name><author><name>Jesus Calleja</name><link href="https://www.wikiloc.com/wikiloc/user.do?id=1667628"><text>Jesus Calleja on Wikiloc</text></link></author><link href="https://www.wikiloc.com/mountain-biking-trails/pedaleando-el-romanico-con-jesus-calleja-larga-18359213"><text>Pedaleando el Románico con Jesús Calleja larga on Wikiloc</text></link><time>2017-06-21T15:22:35Z</time></metadata><trk><name>Pedaleando el Románico con Jesús Calleja larga - Wikiloc</name><cmt></cmt><desc></desc><trkseg><trkpt lat="42.796321" lon="-4.272966"><ele>902.233</ele><time>2017-06-21T12:38:10Z</time></trkpt><trkpt lat="42.796457" lon="-4.273127"><ele>902.723</ele><time>2017-06-21T12:40:53Z</time></trkpt><trkpt lat="42.796250" lon="-4.276335"><ele>901.615</ele><time>2017-06-21T12:41:05Z</time></trkpt><trkpt lat="42.795428" lon="-4.285786"><ele>907.708</ele><time>2017-06-21T12:41:42Z</time></trkpt><trkpt lat="42.795779" lon="-4.284452"><ele>912.714</ele><time>2017-06-21T12:41:54Z</time></trkpt><trkpt lat="42.796006" lon="-4.284153"><ele>913.631</ele><time>2017-06-21T12:41:59Z</time></trkpt><trkpt lat="42.796178" lon="-4.284556"><ele>918.316</ele><time>2017-06-21T12:42:04Z</time></trkpt><trkpt lat="42.796074" lon="-4.285313"><ele>922.718</ele><time>2017-06-21T12:42:09Z</time></trkpt><trkpt lat="42.796172" lon="-4.285841"><ele>926.472</ele><time>2017-06-21T12:42:14Z</time></trkpt><trkpt lat="42.796423" lon="-4.286030"><ele>928.555</ele><time>2017-06-21T12:42:17Z</time></trkpt><trkpt lat="42.796709" lon="-4.285987"><ele>932.634</ele><time>2017-06-21T12:42:21Z</time></trkpt><trkpt lat="42.797071" lon="-4.285176"><ele>940.486</ele><time>2017-06-21T12:42:30Z</time></trkpt><trkpt lat="42.797763" lon="-4.286411"><ele>943.477</ele><time>2017-06-21T12:42:40Z</time></trkpt><trkpt lat="42.798786" lon="-4.287100"><ele>943.261</ele><time>2017-06-21T12:42:49Z</time></trkpt><trkpt lat="42.799104" lon="-4.286980"><ele>943.127</ele><time>2017-06-21T12:42:52Z</time></trkpt><trkpt lat="42.800135" lon="-4.286101"><ele>960.908</ele><time>2017-06-21T12:43:00Z</time></trkpt><trkpt lat="42.800649" lon="-4.286020"><ele>965.778</ele><time>2017-06-21T12:43:05Z</time></trkpt><trkpt lat="42.801118" lon="-4.286312"><ele>964.545</ele><time>2017-06-21T12:43:13Z</time></trkpt><trkpt lat="42.801965" lon="-4.285755"><ele>958.810</ele><time>2017-06-21T12:43:21Z</time></trkpt><trkpt lat="42.802456" lon="-4.285182"><ele>960.232</ele><time>2017-06-21T12:43:26Z</time></trkpt><trkpt lat="42.803029" lon="-4.283798"><ele>964.696</ele><time>2017-06-21T12:43:35Z</time></trkpt><trkpt lat="42.803200" lon="-4.283617"><ele>964.539</ele><time>2017-06-21T12:43:37Z</time></trkpt><trkpt lat="42.803572" lon="-4.283567"><ele>966.618</ele><time>2017-06-21T12:43:40Z</time></trkpt><trkpt lat="42.808683" lon="-4.284256"><ele>945.190</ele><time>2017-06-21T12:44:09Z</time></trkpt><trkpt lat="42.809395" lon="-4.284578"><ele>946.412</ele><time>2017-06-21T12:44:17Z</time></trkpt><trkpt lat="42.809568" lon="-4.284981"><ele>949.732</ele><time>2017-06-21T12:44:23Z</time></trkpt><trkpt lat="42.809953" lon="-4.284556"><ele>953.505</ele><time>2017-06-21T12:44:29Z</time></trkpt><trkpt lat="42.810221" lon="-4.284492"><ele>952.508</ele><time>2017-06-21T12:44:32Z</time></trkpt><trkpt lat="42.811790" lon="-4.285301"><ele>940.282</ele><time>2017-06-21T12:44:44Z</time></trkpt><trkpt lat="42.812143" lon="-4.285321"><ele>939.469</ele><time>2017-06-21T12:44:47Z</time></trkpt><trkpt lat="42.813492" lon="-4.284573"><ele>941.864</ele><time>2017-06-21T12:44:56Z</time></trkpt><trkpt lat="42.815994" lon="-4.284082"><ele>928.786</ele><time>2017-06-21T12:45:12Z</time></trkpt><trkpt lat="42.817843" lon="-4.283070"><ele>930.120</ele><time>2017-06-21T12:45:25Z</time></trkpt><trkpt lat="42.818394" lon="-4.282627"><ele>927.743</ele><time>2017-06-21T12:45:30Z</time></trkpt><trkpt lat="42.819213" lon="-4.282636"><ele>926.152</ele><time>2017-06-21T12:45:38Z</time></trkpt><trkpt lat="42.819268" lon="-4.282383"><ele>925.614</ele><time>2017-06-21T12:45:43Z</time></trkpt><trkpt lat="42.819770" lon="-4.281918"><ele>923.752</ele><time>2017-06-21T12:45:48Z</time></trkpt><trkpt lat="42.820856" lon="-4.281284"><ele>921.653</ele><time>2017-06-21T12:45:55Z</time></trkpt><trkpt lat="42.821194" lon="-4.280330"><ele>922.808</ele><time>2017-06-21T12:46:03Z</time></trkpt><trkpt lat="42.821538" lon="-4.279928"><ele>927.208</ele><time>2017-06-21T12:46:11Z</time></trkpt><trkpt lat="42.821356" lon="-4.279178"><ele>931.766</ele><time>2017-06-21T12:46:23Z</time></trkpt><trkpt lat="42.820951" lon="-4.278879"><ele>932.083</ele><time>2017-06-21T12:46:28Z</time></trkpt><trkpt lat="42.820703" lon="-4.278252"><ele>935.598</ele><time>2017-06-21T12:46:33Z</time></trkpt><trkpt lat="42.820764" lon="-4.277221"><ele>934.810</ele><time>2017-06-21T12:46:39Z</time></trkpt><trkpt lat="42.820464" lon="-4.275564"><ele>939.414</ele><time>2017-06-21T12:46:47Z</time></trkpt><trkpt lat="42.819953" lon="-4.274410"><ele>938.087</ele><time>2017-06-21T12:46:54Z</time></trkpt><trkpt lat="42.818633" lon="-4.273192"><ele>947.086</ele><time>2017-06-21T12:47:05Z</time></trkpt><trkpt lat="42.818945" lon="-4.272640"><ele>948.588</ele><time>2017-06-21T12:47:12Z</time></trkpt><trkpt lat="42.818959" lon="-4.272285"><ele>947.856</ele><time>2017-06-21T12:47:16Z</time></trkpt><trkpt lat="42.818227" lon="-4.272146"><ele>947.759</ele><time>2017-06-21T12:47:23Z</time></trkpt><trkpt lat="42.818061" lon="-4.271957"><ele>946.114</ele><time>2017-06-21T12:47:25Z</time></trkpt><trkpt lat="42.817152" lon="-4.269709"><ele>938.408</ele><time>2017-06-21T12:47:38Z</time></trkpt><trkpt lat="42.816593" lon="-4.269555"><ele>940.746</ele><time>2017-06-21T12:47:45Z</time></trkpt><trkpt lat="42.816322" lon="-4.268923"><ele>945.893</ele><time>2017-06-21T12:47:50Z</time></trkpt><trkpt lat="42.815522" lon="-4.267964"><ele>950.928</ele><time>2017-06-21T12:47:59Z</time></trkpt><trkpt lat="42.814708" lon="-4.266323"><ele>944.720</ele><time>2017-06-21T12:48:10Z</time></trkpt><trkpt lat="42.814654" lon="-4.264591"><ele>944.544</ele><time>2017-06-21T12:48:19Z</time></trkpt><trkpt lat="42.815697" lon="-4.262942"><ele>949.837</ele><time>2017-06-21T12:48:31Z</time></trkpt><trkpt lat="42.815715" lon="-4.262242"><ele>952.246</ele><time>2017-06-21T12:48:38Z</time></trkpt><trkpt lat="42.817215" lon="-4.262632"><ele>967.588</ele><time>2017-06-21T12:48:50Z</time></trkpt><trkpt lat="42.817999" lon="-4.262557"><ele>973.172</ele><time>2017-06-21T12:48:55Z</time></trkpt><trkpt lat="42.819429" lon="-4.262724"><ele>981.713</ele><time>2017-06-21T12:49:03Z</time></trkpt><trkpt lat="42.823138" lon="-4.262419"><ele>993.214</ele><time>2017-06-21T12:49:23Z</time></trkpt><trkpt lat="42.823721" lon="-4.263117"><ele>991.608</ele><time>2017-06-21T12:49:30Z</time></trkpt><trkpt lat="42.823918" lon="-4.264228"><ele>990.728</ele><time>2017-06-21T12:49:38Z</time></trkpt><trkpt lat="42.828942" lon="-4.265473"><ele>984.125</ele><time>2017-06-21T12:50:05Z</time></trkpt><trkpt lat="42.829115" lon="-4.265335"><ele>984.260</ele><time>2017-06-21T12:50:08Z</time></trkpt><trkpt lat="42.829970" lon="-4.263371"><ele>979.982</ele><time>2017-06-21T12:50:20Z</time></trkpt><trkpt lat="42.831152" lon="-4.263241"><ele>981.226</ele><time>2017-06-21T12:50:28Z</time></trkpt><trkpt lat="42.832095" lon="-4.263349"><ele>983.999</ele><time>2017-06-21T12:50:34Z</time></trkpt><trkpt lat="42.832937" lon="-4.262995"><ele>987.328</ele><time>2017-06-21T12:50:39Z</time></trkpt><trkpt lat="42.833669" lon="-4.262223"><ele>984.870</ele><time>2017-06-21T12:50:47Z</time></trkpt><trkpt lat="42.834241" lon="-4.262248"><ele>984.271</ele><time>2017-06-21T12:50:52Z</time></trkpt><trkpt lat="42.835110" lon="-4.262650"><ele>983.241</ele><time>2017-06-21T12:50:59Z</time></trkpt><trkpt lat="42.835919" lon="-4.262301"><ele>983.415</ele><time>2017-06-21T12:51:08Z</time></trkpt><trkpt lat="42.838598" lon="-4.262454"><ele>982.508</ele><time>2017-06-21T12:51:27Z</time></trkpt><trkpt lat="42.839672" lon="-4.262809"><ele>981.148</ele><time>2017-06-21T12:51:33Z</time></trkpt><trkpt lat="42.841301" lon="-4.263664"><ele>971.215</ele><time>2017-06-21T12:51:42Z</time></trkpt><trkpt lat="42.841943" lon="-4.263787"><ele>965.120</ele><time>2017-06-21T12:51:45Z</time></trkpt><trkpt lat="42.844799" lon="-4.264108"><ele>949.492</ele><time>2017-06-21T12:51:56Z</time></trkpt><trkpt lat="42.848563" lon="-4.263979"><ele>943.676</ele><time>2017-06-21T12:52:11Z</time></trkpt><trkpt lat="42.849166" lon="-4.263872"><ele>943.229</ele><time>2017-06-21T12:52:15Z</time></trkpt><trkpt lat="42.849680" lon="-4.263555"><ele>943.638</ele><time>2017-06-21T12:52:19Z</time></trkpt><trkpt lat="42.850690" lon="-4.261726"><ele>940.240</ele><time>2017-06-21T12:52:31Z</time></trkpt><trkpt lat="42.851869" lon="-4.260836"><ele>935.073</ele><time>2017-06-21T12:52:43Z</time></trkpt><trkpt lat="42.852078" lon="-4.259940"><ele>935.085</ele><time>2017-06-21T12:52:52Z</time></trkpt><trkpt lat="42.851722" lon="-4.259923"><ele>935.013</ele><time>2017-06-21T12:52:58Z</time></trkpt><trkpt lat="42.851359" lon="-4.259408"><ele>934.908</ele><time>2017-06-21T12:53:04Z</time></trkpt><trkpt lat="42.851318" lon="-4.257972"><ele>933.868</ele><time>2017-06-21T12:53:21Z</time></trkpt><trkpt lat="42.851377" lon="-4.257872"><ele>934.065</ele><time>2017-06-21T12:53:27Z</time></trkpt><trkpt lat="42.851708" lon="-4.258120"><ele>934.150</ele><time>2017-06-21T12:53:35Z</time></trkpt><trkpt lat="42.852100" lon="-4.257775"><ele>934.662</ele><time>2017-06-21T12:53:42Z</time></trkpt><trkpt lat="42.852218" lon="-4.258055"><ele>935.036</ele><time>2017-06-21T12:53:47Z</time></trkpt><trkpt lat="42.852067" lon="-4.258472"><ele>934.719</ele><time>2017-06-21T12:53:54Z</time></trkpt><trkpt lat="42.852168" lon="-4.259449"><ele>935.048</ele><time>2017-06-21T12:54:04Z</time></trkpt><trkpt lat="42.851855" lon="-4.260833"><ele>935.040</ele><time>2017-06-21T12:54:13Z</time></trkpt><trkpt lat="42.850545" lon="-4.261895"><ele>941.298</ele><time>2017-06-21T12:54:24Z</time></trkpt><trkpt lat="42.849761" lon="-4.263580"><ele>943.315</ele><time>2017-06-21T12:54:39Z</time></trkpt><trkpt lat="42.850149" lon="-4.264035"><ele>942.226</ele><time>2017-06-21T12:54:44Z</time></trkpt><trkpt lat="42.850764" lon="-4.264272"><ele>940.008</ele><time>2017-06-21T12:54:49Z</time></trkpt><trkpt lat="42.851039" lon="-4.264221"><ele>938.540</ele><time>2017-06-21T12:54:52Z</time></trkpt><trkpt lat="42.851507" lon="-4.263856"><ele>937.127</ele><time>2017-06-21T12:54:59Z</time></trkpt><trkpt lat="42.852126" lon="-4.265280"><ele>938.052</ele><time>2017-06-21T12:55:11Z</time></trkpt><trkpt lat="42.853709" lon="-4.267169"><ele>939.634</ele><time>2017-06-21T12:55:27Z</time></trkpt><trkpt lat="42.853743" lon="-4.267700"><ele>940.728</ele><time>2017-06-21T12:55:35Z</time></trkpt><trkpt lat="42.853296" lon="-4.268805"><ele>943.021</ele><time>2017-06-21T12:55:51Z</time></trkpt><trkpt lat="42.854047" lon="-4.268694"><ele>948.550</ele><time>2017-06-21T12:56:05Z</time></trkpt><trkpt lat="42.854085" lon="-4.269411"><ele>954.432</ele><time>2017-06-21T12:56:18Z</time></trkpt><trkpt lat="42.854591" lon="-4.270569"><ele>961.533</ele><time>2017-06-21T12:56:30Z</time></trkpt><trkpt lat="42.855163" lon="-4.271430"><ele>964.823</ele><time>2017-06-21T12:56:38Z</time></trkpt><trkpt lat="42.855217" lon="-4.272649"><ele>969.015</ele><time>2017-06-21T12:56:48Z</time></trkpt><trkpt lat="42.856709" lon="-4.274066"><ele>977.408</ele><time>2017-06-21T12:57:03Z</time></trkpt><trkpt lat="42.856661" lon="-4.274594"><ele>977.084</ele><time>2017-06-21T12:57:08Z</time></trkpt><trkpt lat="42.857149" lon="-4.275218"><ele>970.651</ele><time>2017-06-21T12:57:16Z</time></trkpt><trkpt lat="42.857278" lon="-4.275665"><ele>963.586</ele><time>2017-06-21T12:57:20Z</time></trkpt><trkpt lat="42.857043" lon="-4.277299"><ele>956.498</ele><time>2017-06-21T12:57:36Z</time></trkpt><trkpt lat="42.858502" lon="-4.277392"><ele>949.412</ele><time>2017-06-21T12:58:16Z</time></trkpt><trkpt lat="42.859970" lon="-4.277752"><ele>950.085</ele><time>2017-06-21T12:58:37Z</time></trkpt><trkpt lat="42.860268" lon="-4.278556"><ele>950.894</ele><time>2017-06-21T12:58:45Z</time></trkpt><trkpt lat="42.861004" lon="-4.278774"><ele>953.856</ele><time>2017-06-21T12:58:57Z</time></trkpt><trkpt lat="42.861646" lon="-4.278594"><ele>954.781</ele><time>2017-06-21T12:59:07Z</time></trkpt><trkpt lat="42.862144" lon="-4.278230"><ele>953.761</ele><time>2017-06-21T12:59:15Z</time></trkpt><trkpt lat="42.862418" lon="-4.278268"><ele>954.517</ele><time>2017-06-21T12:59:21Z</time></trkpt><trkpt lat="42.862454" lon="-4.277963"><ele>952.608</ele><time>2017-06-21T12:59:27Z</time></trkpt><trkpt lat="42.862270" lon="-4.277987"><ele>952.149</ele><time>2017-06-21T12:59:31Z</time></trkpt><trkpt lat="42.862143" lon="-4.278237"><ele>953.886</ele><time>2017-06-21T12:59:34Z</time></trkpt><trkpt lat="42.861450" lon="-4.278728"><ele>955.131</ele><time>2017-06-21T12:59:42Z</time></trkpt><trkpt lat="42.860219" lon="-4.279012"><ele>955.183</ele><time>2017-06-21T12:59:56Z</time></trkpt><trkpt lat="42.860192" lon="-4.279265"><ele>957.577</ele><time>2017-06-21T13:13:47Z</time></trkpt><trkpt lat="42.860308" lon="-4.279594"><ele>961.370</ele><time>2017-06-21T13:13:52Z</time></trkpt><trkpt lat="42.860772" lon="-4.279521"><ele>963.579</ele><time>2017-06-21T13:14:03Z</time></trkpt><trkpt lat="42.860961" lon="-4.279671"><ele>966.041</ele><time>2017-06-21T13:14:09Z</time></trkpt><trkpt lat="42.861066" lon="-4.280217"><ele>969.559</ele><time>2017-06-21T13:14:20Z</time></trkpt><trkpt lat="42.861302" lon="-4.280499"><ele>970.903</ele><time>2017-06-21T13:14:25Z</time></trkpt><trkpt lat="42.862210" lon="-4.280896"><ele>981.223</ele><time>2017-06-21T13:14:38Z</time></trkpt><trkpt lat="42.862241" lon="-4.281388"><ele>982.908</ele><time>2017-06-21T13:14:47Z</time></trkpt><trkpt lat="42.862699" lon="-4.282250"><ele>988.676</ele><time>2017-06-21T13:15:05Z</time></trkpt><trkpt lat="42.863123" lon="-4.286341"><ele>1023.123</ele><time>2017-06-21T13:15:55Z</time></trkpt><trkpt lat="42.862954" lon="-4.287712"><ele>1022.238</ele><time>2017-06-21T13:16:09Z</time></trkpt><trkpt lat="42.863039" lon="-4.289110"><ele>1021.020</ele><time>2017-06-21T13:16:21Z</time></trkpt><trkpt lat="42.863603" lon="-4.291697"><ele>1023.974</ele><time>2017-06-21T13:16:51Z</time></trkpt><trkpt lat="42.863432" lon="-4.292436"><ele>1023.177</ele><time>2017-06-21T13:17:03Z</time></trkpt><trkpt lat="42.863873" lon="-4.292767"><ele>1026.056</ele><time>2017-06-21T13:17:12Z</time></trkpt><trkpt lat="42.865516" lon="-4.293445"><ele>1035.228</ele><time>2017-06-21T13:17:50Z</time></trkpt><trkpt lat="42.865986" lon="-4.293796"><ele>1038.797</ele><time>2017-06-21T13:17:56Z</time></trkpt><trkpt lat="42.866346" lon="-4.294520"><ele>1046.923</ele><time>2017-06-21T13:18:09Z</time></trkpt><trkpt lat="42.866594" lon="-4.293878"><ele>1045.025</ele><time>2017-06-21T13:18:50Z</time></trkpt><trkpt lat="42.866985" lon="-4.294073"><ele>1041.808</ele><time>2017-06-21T13:19:03Z</time></trkpt><trkpt lat="42.867674" lon="-4.295277"><ele>1030.430</ele><time>2017-06-21T13:19:14Z</time></trkpt><trkpt lat="42.868928" lon="-4.296589"><ele>1009.987</ele><time>2017-06-21T13:19:32Z</time></trkpt><trkpt lat="42.869809" lon="-4.298193"><ele>997.762</ele><time>2017-06-21T13:19:50Z</time></trkpt><trkpt lat="42.870009" lon="-4.298222"><ele>996.194</ele><time>2017-06-21T13:19:53Z</time></trkpt><trkpt lat="42.870361" lon="-4.297928"><ele>993.668</ele><time>2017-06-21T13:19:58Z</time></trkpt><trkpt lat="42.871267" lon="-4.298403"><ele>984.321</ele><time>2017-06-21T13:20:07Z</time></trkpt><trkpt lat="42.873425" lon="-4.300666"><ele>990.190</ele><time>2017-06-21T13:20:22Z</time></trkpt><trkpt lat="42.874044" lon="-4.301626"><ele>992.552</ele><time>2017-06-21T13:20:29Z</time></trkpt><trkpt lat="42.874340" lon="-4.302527"><ele>993.894</ele><time>2017-06-21T13:20:36Z</time></trkpt><trkpt lat="42.874292" lon="-4.302860"><ele>994.857</ele><time>2017-06-21T13:21:00Z</time></trkpt><trkpt lat="42.873775" lon="-4.303548"><ele>997.422</ele><time>2017-06-21T13:21:08Z</time></trkpt><trkpt lat="42.873550" lon="-4.304340"><ele>998.908</ele><time>2017-06-21T13:21:13Z</time></trkpt><trkpt lat="42.871312" lon="-4.307717"><ele>1007.750</ele><time>2017-06-21T13:21:30Z</time></trkpt><trkpt lat="42.869963" lon="-4.309397"><ele>1005.527</ele><time>2017-06-21T13:21:44Z</time></trkpt><trkpt lat="42.869532" lon="-4.310592"><ele>1010.872</ele><time>2017-06-21T13:21:50Z</time></trkpt><trkpt lat="42.869585" lon="-4.311826"><ele>1014.914</ele><time>2017-06-21T13:21:59Z</time></trkpt><trkpt lat="42.868932" lon="-4.312455"><ele>1014.188</ele><time>2017-06-21T13:22:09Z</time></trkpt><trkpt lat="42.868433" lon="-4.311959"><ele>1016.781</ele><time>2017-06-21T13:22:18Z</time></trkpt><trkpt lat="42.868238" lon="-4.311952"><ele>1018.790</ele><time>2017-06-21T13:22:20Z</time></trkpt><trkpt lat="42.865828" lon="-4.312404"><ele>1034.062</ele><time>2017-06-21T13:22:37Z</time></trkpt><trkpt lat="42.865710" lon="-4.312525"><ele>1033.615</ele><time>2017-06-21T13:22:41Z</time></trkpt><trkpt lat="42.866425" lon="-4.315559"><ele>1037.065</ele><time>2017-06-21T13:23:11Z</time></trkpt><trkpt lat="42.867432" lon="-4.316704"><ele>1051.311</ele><time>2017-06-21T13:23:29Z</time></trkpt><trkpt lat="42.867367" lon="-4.318648"><ele>1063.408</ele><time>2017-06-21T13:25:47Z</time></trkpt><trkpt lat="42.866973" lon="-4.319894"><ele>1071.242</ele><time>2017-06-21T13:26:03Z</time></trkpt><trkpt lat="42.866473" lon="-4.320548"><ele>1070.169</ele><time>2017-06-21T13:26:12Z</time></trkpt><trkpt lat="42.864822" lon="-4.321010"><ele>1060.224</ele><time>2017-06-21T13:26:28Z</time></trkpt><trkpt lat="42.864486" lon="-4.321235"><ele>1059.216</ele><time>2017-06-21T13:26:33Z</time></trkpt><trkpt lat="42.864082" lon="-4.322410"><ele>1054.190</ele><time>2017-06-21T13:26:43Z</time></trkpt><trkpt lat="42.863590" lon="-4.322950"><ele>1046.813</ele><time>2017-06-21T13:26:51Z</time></trkpt><trkpt lat="42.863112" lon="-4.324008"><ele>1039.972</ele><time>2017-06-21T13:27:03Z</time></trkpt><trkpt lat="42.862675" lon="-4.327037"><ele>1011.854</ele><time>2017-06-21T13:27:34Z</time></trkpt><trkpt lat="42.862734" lon="-4.330193"><ele>1014.695</ele><time>2017-06-21T13:28:00Z</time></trkpt><trkpt lat="42.862327" lon="-4.333524"><ele>1015.449</ele><time>2017-06-21T13:28:18Z</time></trkpt><trkpt lat="42.862777" lon="-4.335692"><ele>1011.023</ele><time>2017-06-21T13:28:29Z</time></trkpt><trkpt lat="42.863941" lon="-4.337646"><ele>1012.108</ele><time>2017-06-21T13:28:46Z</time></trkpt><trkpt lat="42.864841" lon="-4.341330"><ele>1003.150</ele><time>2017-06-21T13:29:09Z</time></trkpt><trkpt lat="42.865741" lon="-4.343022"><ele>1014.247</ele><time>2017-06-21T13:29:23Z</time></trkpt><trkpt lat="42.866473" lon="-4.343335"><ele>1016.332</ele><time>2017-06-21T13:29:34Z</time></trkpt><trkpt lat="42.867509" lon="-4.344241"><ele>1019.494</ele><time>2017-06-21T13:29:43Z</time></trkpt><trkpt lat="42.868277" lon="-4.347406"><ele>1003.158</ele><time>2017-06-21T13:30:01Z</time></trkpt><trkpt lat="42.868822" lon="-4.347893"><ele>1001.261</ele><time>2017-06-21T13:30:07Z</time></trkpt><trkpt lat="42.869330" lon="-4.347794"><ele>1001.680</ele><time>2017-06-21T13:30:16Z</time></trkpt><trkpt lat="42.869831" lon="-4.347883"><ele>1003.182</ele><time>2017-06-21T13:30:25Z</time></trkpt><trkpt lat="42.870038" lon="-4.347703"><ele>1003.792</ele><time>2017-06-21T13:30:31Z</time></trkpt><trkpt lat="42.870238" lon="-4.347163"><ele>1006.873</ele><time>2017-06-21T13:30:41Z</time></trkpt><trkpt lat="42.870646" lon="-4.346923"><ele>1009.520</ele><time>2017-06-21T13:30:52Z</time></trkpt><trkpt lat="42.870885" lon="-4.345890"><ele>1016.908</ele><time>2017-06-21T13:31:37Z</time></trkpt><trkpt lat="42.871206" lon="-4.345854"><ele>1019.290</ele><time>2017-06-21T13:31:43Z</time></trkpt><trkpt lat="42.871592" lon="-4.346123"><ele>1019.367</ele><time>2017-06-21T13:31:52Z</time></trkpt><trkpt lat="42.871606" lon="-4.346716"><ele>1014.222</ele><time>2017-06-21T13:32:00Z</time></trkpt><trkpt lat="42.871120" lon="-4.347414"><ele>1007.344</ele><time>2017-06-21T13:32:09Z</time></trkpt><trkpt lat="42.871130" lon="-4.348060"><ele>1009.148</ele><time>2017-06-21T13:32:16Z</time></trkpt><trkpt lat="42.870829" lon="-4.348714"><ele>1017.181</ele><time>2017-06-21T13:32:40Z</time></trkpt><trkpt lat="42.871665" lon="-4.349947"><ele>1024.670</ele><time>2017-06-21T13:33:33Z</time></trkpt><trkpt lat="42.871713" lon="-4.349604"><ele>1022.392</ele><time>2017-06-21T13:33:38Z</time></trkpt><trkpt lat="42.871735" lon="-4.350697"><ele>1026.512</ele><time>2017-06-21T13:35:26Z</time></trkpt><trkpt lat="42.872029" lon="-4.352096"><ele>1022.432</ele><time>2017-06-21T13:35:34Z</time></trkpt><trkpt lat="42.871943" lon="-4.354923"><ele>1014.005</ele><time>2017-06-21T13:35:47Z</time></trkpt><trkpt lat="42.871572" lon="-4.356626"><ele>1006.708</ele><time>2017-06-21T13:35:58Z</time></trkpt><trkpt lat="42.869620" lon="-4.357406"><ele>995.232</ele><time>2017-06-21T14:06:49Z</time></trkpt><trkpt lat="42.866445" lon="-4.358090"><ele>988.549</ele><time>2017-06-21T14:07:11Z</time></trkpt><trkpt lat="42.863391" lon="-4.359123"><ele>980.044</ele><time>2017-06-21T14:09:22Z</time></trkpt><trkpt lat="42.860924" lon="-4.362054"><ele>971.786</ele><time>2017-06-21T14:09:40Z</time></trkpt><trkpt lat="42.860338" lon="-4.363179"><ele>968.870</ele><time>2017-06-21T14:09:46Z</time></trkpt><trkpt lat="42.859683" lon="-4.365089"><ele>965.023</ele><time>2017-06-21T14:09:58Z</time></trkpt><trkpt lat="42.857628" lon="-4.368527"><ele>959.862</ele><time>2017-06-21T14:10:13Z</time></trkpt><trkpt lat="42.856354" lon="-4.370062"><ele>957.174</ele><time>2017-06-21T14:10:26Z</time></trkpt><trkpt lat="42.855488" lon="-4.372219"><ele>954.881</ele><time>2017-06-21T14:10:35Z</time></trkpt><trkpt lat="42.854455" lon="-4.373892"><ele>952.061</ele><time>2017-06-21T14:10:43Z</time></trkpt><trkpt lat="42.853487" lon="-4.374892"><ele>951.917</ele><time>2017-06-21T14:10:53Z</time></trkpt><trkpt lat="42.852938" lon="-4.375155"><ele>951.808</ele><time>2017-06-21T14:11:00Z</time></trkpt><trkpt lat="42.852597" lon="-4.375623"><ele>951.219</ele><time>2017-06-21T14:11:06Z</time></trkpt><trkpt lat="42.852198" lon="-4.375901"><ele>949.016</ele><time>2017-06-21T14:11:14Z</time></trkpt><trkpt lat="42.851705" lon="-4.375983"><ele>948.191</ele><time>2017-06-21T14:11:46Z</time></trkpt><trkpt lat="42.851873" lon="-4.377029"><ele>947.793</ele><time>2017-06-21T14:12:02Z</time></trkpt><trkpt lat="42.851362" lon="-4.377178"><ele>945.127</ele><time>2017-06-21T14:12:13Z</time></trkpt><trkpt lat="42.850691" lon="-4.378034"><ele>945.020</ele><time>2017-06-21T14:12:25Z</time></trkpt><trkpt lat="42.850326" lon="-4.378183"><ele>945.069</ele><time>2017-06-21T14:12:31Z</time></trkpt><trkpt lat="42.850202" lon="-4.378460"><ele>944.431</ele><time>2017-06-21T14:12:37Z</time></trkpt><trkpt lat="42.849219" lon="-4.378267"><ele>944.036</ele><time>2017-06-21T14:12:56Z</time></trkpt><trkpt lat="42.847500" lon="-4.379244"><ele>945.017</ele><time>2017-06-21T14:13:15Z</time></trkpt><trkpt lat="42.848240" lon="-4.381148"><ele>945.118</ele><time>2017-06-21T14:15:10Z</time></trkpt><trkpt lat="42.848391" lon="-4.382014"><ele>944.608</ele><time>2017-06-21T14:15:13Z</time></trkpt><trkpt lat="42.848821" lon="-4.387760"><ele>946.044</ele><time>2017-06-21T14:17:08Z</time></trkpt><trkpt lat="42.848463" lon="-4.389496"><ele>946.511</ele><time>2017-06-21T14:17:16Z</time></trkpt><trkpt lat="42.847614" lon="-4.391118"><ele>947.656</ele><time>2017-06-21T14:17:24Z</time></trkpt><trkpt lat="42.846996" lon="-4.391753"><ele>948.868</ele><time>2017-06-21T14:17:29Z</time></trkpt><trkpt lat="42.846276" lon="-4.393072"><ele>947.882</ele><time>2017-06-21T14:17:36Z</time></trkpt><trkpt lat="42.845777" lon="-4.394579"><ele>948.845</ele><time>2017-06-21T14:17:42Z</time></trkpt><trkpt lat="42.845571" lon="-4.396554"><ele>949.994</ele><time>2017-06-21T14:17:51Z</time></trkpt><trkpt lat="42.846009" lon="-4.399897"><ele>949.876</ele><time>2017-06-21T14:18:09Z</time></trkpt><trkpt lat="42.845675" lon="-4.400989"><ele>951.064</ele><time>2017-06-21T14:18:15Z</time></trkpt><trkpt lat="42.845302" lon="-4.404399"><ele>952.606</ele><time>2017-06-21T14:18:31Z</time></trkpt><trkpt lat="42.845683" lon="-4.407853"><ele>953.116</ele><time>2017-06-21T14:18:47Z</time></trkpt><trkpt lat="42.845990" lon="-4.408671"><ele>952.708</ele><time>2017-06-21T14:18:52Z</time></trkpt><trkpt lat="42.846497" lon="-4.409217"><ele>952.367</ele><time>2017-06-21T14:18:59Z</time></trkpt><trkpt lat="42.846724" lon="-4.410935"><ele>955.494</ele><time>2017-06-21T14:19:32Z</time></trkpt><trkpt lat="42.845583" lon="-4.411328"><ele>957.649</ele><time>2017-06-21T14:19:47Z</time></trkpt><trkpt lat="42.842908" lon="-4.415428"><ele>964.571</ele><time>2017-06-21T14:20:15Z</time></trkpt><trkpt lat="42.840481" lon="-4.417194"><ele>979.395</ele><time>2017-06-21T14:20:29Z</time></trkpt><trkpt lat="42.839738" lon="-4.418157"><ele>985.038</ele><time>2017-06-21T14:20:36Z</time></trkpt><trkpt lat="42.839451" lon="-4.419127"><ele>981.177</ele><time>2017-06-21T14:20:44Z</time></trkpt><trkpt lat="42.839235" lon="-4.419155"><ele>980.399</ele><time>2017-06-21T14:20:47Z</time></trkpt><trkpt lat="42.838786" lon="-4.418854"><ele>976.578</ele><time>2017-06-21T14:20:52Z</time></trkpt><trkpt lat="42.838128" lon="-4.418892"><ele>971.533</ele><time>2017-06-21T14:20:58Z</time></trkpt><trkpt lat="42.836779" lon="-4.420527"><ele>970.526</ele><time>2017-06-21T14:21:11Z</time></trkpt><trkpt lat="42.834795" lon="-4.418731"><ele>974.208</ele><time>2017-06-21T14:21:25Z</time></trkpt><trkpt lat="42.833156" lon="-4.417626"><ele>975.728</ele><time>2017-06-21T14:21:34Z</time></trkpt><trkpt lat="42.829626" lon="-4.416090"><ele>983.335</ele><time>2017-06-21T14:21:51Z</time></trkpt><trkpt lat="42.827893" lon="-4.415017"><ele>987.720</ele><time>2017-06-21T14:22:02Z</time></trkpt><trkpt lat="42.827014" lon="-4.415063"><ele>992.252</ele><time>2017-06-21T14:22:08Z</time></trkpt><trkpt lat="42.825869" lon="-4.414580"><ele>996.766</ele><time>2017-06-21T14:22:19Z</time></trkpt><trkpt lat="42.825131" lon="-4.413009"><ele>998.419</ele><time>2017-06-21T14:22:31Z</time></trkpt><trkpt lat="42.824804" lon="-4.411486"><ele>999.438</ele><time>2017-06-21T14:22:38Z</time></trkpt><trkpt lat="42.824801" lon="-4.411184"><ele>1000.710</ele><time>2017-06-21T14:22:40Z</time></trkpt><trkpt lat="42.825232" lon="-4.410155"><ele>996.123</ele><time>2017-06-21T14:22:47Z</time></trkpt><trkpt lat="42.824760" lon="-4.409950"><ele>1001.383</ele><time>2017-06-21T14:22:55Z</time></trkpt><trkpt lat="42.824552" lon="-4.407327"><ele>987.411</ele><time>2017-06-21T14:23:11Z</time></trkpt><trkpt lat="42.822559" lon="-4.404135"><ele>987.708</ele><time>2017-06-21T14:24:13Z</time></trkpt><trkpt lat="42.822590" lon="-4.403163"><ele>984.093</ele><time>2017-06-21T14:24:25Z</time></trkpt><trkpt lat="42.822217" lon="-4.402039"><ele>983.440</ele><time>2017-06-21T14:24:36Z</time></trkpt><trkpt lat="42.822099" lon="-4.400674"><ele>975.375</ele><time>2017-06-21T14:24:48Z</time></trkpt><trkpt lat="42.821826" lon="-4.399594"><ele>975.247</ele><time>2017-06-21T14:24:58Z</time></trkpt><trkpt lat="42.821443" lon="-4.398821"><ele>974.931</ele><time>2017-06-21T14:25:08Z</time></trkpt><trkpt lat="42.820773" lon="-4.398161"><ele>978.624</ele><time>2017-06-21T14:25:19Z</time></trkpt><trkpt lat="42.820028" lon="-4.397100"><ele>980.853</ele><time>2017-06-21T14:25:32Z</time></trkpt><trkpt lat="42.819190" lon="-4.394665"><ele>979.365</ele><time>2017-06-21T14:25:52Z</time></trkpt><trkpt lat="42.818729" lon="-4.393844"><ele>980.673</ele><time>2017-06-21T14:26:00Z</time></trkpt><trkpt lat="42.818364" lon="-4.392802"><ele>982.685</ele><time>2017-06-21T14:26:09Z</time></trkpt><trkpt lat="42.818317" lon="-4.391801"><ele>984.713</ele><time>2017-06-21T14:26:17Z</time></trkpt><trkpt lat="42.817596" lon="-4.390192"><ele>981.808</ele><time>2017-06-21T14:26:29Z</time></trkpt><trkpt lat="42.817365" lon="-4.387882"><ele>970.398</ele><time>2017-06-21T14:26:47Z</time></trkpt><trkpt lat="42.816433" lon="-4.386311"><ele>969.675</ele><time>2017-06-21T14:27:04Z</time></trkpt><trkpt lat="42.815288" lon="-4.385082"><ele>965.120</ele><time>2017-06-21T14:27:25Z</time></trkpt><trkpt lat="42.813917" lon="-4.382229"><ele>959.792</ele><time>2017-06-21T14:27:58Z</time></trkpt><trkpt lat="42.813086" lon="-4.379953"><ele>956.886</ele><time>2017-06-21T14:36:50Z</time></trkpt><trkpt lat="42.811581" lon="-4.380197"><ele>966.129</ele><time>2017-06-21T14:48:26Z</time></trkpt><trkpt lat="42.811246" lon="-4.378984"><ele>977.418</ele><time>2017-06-21T14:48:38Z</time></trkpt><trkpt lat="42.811048" lon="-4.378919"><ele>981.120</ele><time>2017-06-21T14:48:44Z</time></trkpt><trkpt lat="42.810938" lon="-4.380133"><ele>985.926</ele><time>2017-06-21T14:48:52Z</time></trkpt><trkpt lat="42.811105" lon="-4.381335"><ele>992.647</ele><time>2017-06-21T14:49:00Z</time></trkpt><trkpt lat="42.810639" lon="-4.383163"><ele>997.911</ele><time>2017-06-21T14:49:09Z</time></trkpt><trkpt lat="42.810662" lon="-4.383997"><ele>1002.408</ele><time>2017-06-21T14:49:14Z</time></trkpt><trkpt lat="42.810211" lon="-4.386207"><ele>1010.063</ele><time>2017-06-21T14:49:25Z</time></trkpt><trkpt lat="42.809251" lon="-4.389492"><ele>1021.510</ele><time>2017-06-21T14:49:40Z</time></trkpt><trkpt lat="42.809171" lon="-4.390511"><ele>1022.985</ele><time>2017-06-21T14:49:46Z</time></trkpt><trkpt lat="42.807983" lon="-4.392532"><ele>1024.637</ele><time>2017-06-21T14:50:15Z</time></trkpt><trkpt lat="42.807083" lon="-4.393045"><ele>1025.561</ele><time>2017-06-21T14:50:25Z</time></trkpt><trkpt lat="42.806222" lon="-4.391464"><ele>1027.734</ele><time>2017-06-21T14:50:36Z</time></trkpt><trkpt lat="42.805906" lon="-4.390036"><ele>1036.033</ele><time>2017-06-21T14:50:43Z</time></trkpt><trkpt lat="42.805594" lon="-4.389452"><ele>1038.155</ele><time>2017-06-21T14:50:47Z</time></trkpt><trkpt lat="42.804425" lon="-4.388248"><ele>1039.167</ele><time>2017-06-21T14:50:59Z</time></trkpt><trkpt lat="42.803467" lon="-4.386775"><ele>1044.181</ele><time>2017-06-21T14:51:07Z</time></trkpt><trkpt lat="42.800182" lon="-4.383245"><ele>1065.419</ele><time>2017-06-21T14:51:27Z</time></trkpt><trkpt lat="42.799342" lon="-4.381866"><ele>1076.908</ele><time>2017-06-21T14:51:35Z</time></trkpt><trkpt lat="42.798009" lon="-4.380256"><ele>1100.327</ele><time>2017-06-21T14:51:46Z</time></trkpt><trkpt lat="42.794529" lon="-4.375443"><ele>1091.814</ele><time>2017-06-21T14:52:13Z</time></trkpt><trkpt lat="42.793183" lon="-4.374192"><ele>1095.189</ele><time>2017-06-21T14:52:20Z</time></trkpt><trkpt lat="42.792261" lon="-4.373756"><ele>1097.021</ele><time>2017-06-21T14:52:27Z</time></trkpt><trkpt lat="42.791714" lon="-4.373256"><ele>1095.265</ele><time>2017-06-21T14:52:31Z</time></trkpt><trkpt lat="42.789667" lon="-4.370525"><ele>1090.468</ele><time>2017-06-21T14:52:54Z</time></trkpt><trkpt lat="42.789466" lon="-4.370468"><ele>1087.937</ele><time>2017-06-21T14:52:57Z</time></trkpt><trkpt lat="42.789353" lon="-4.370628"><ele>1085.649</ele><time>2017-06-21T14:53:00Z</time></trkpt><trkpt lat="42.789655" lon="-4.374147"><ele>1082.689</ele><time>2017-06-21T14:53:22Z</time></trkpt><trkpt lat="42.789536" lon="-4.374386"><ele>1081.406</ele><time>2017-06-21T14:53:27Z</time></trkpt><trkpt lat="42.788623" lon="-4.373576"><ele>1082.226</ele><time>2017-06-21T14:53:35Z</time></trkpt><trkpt lat="42.788186" lon="-4.372907"><ele>1080.908</ele><time>2017-06-21T14:53:40Z</time></trkpt><trkpt lat="42.788055" lon="-4.371809"><ele>1078.599</ele><time>2017-06-21T14:53:47Z</time></trkpt><trkpt lat="42.788243" lon="-4.370707"><ele>1081.636</ele><time>2017-06-21T14:53:54Z</time></trkpt><trkpt lat="42.788127" lon="-4.370201"><ele>1084.911</ele><time>2017-06-21T14:53:57Z</time></trkpt><trkpt lat="42.787873" lon="-4.369889"><ele>1086.323</ele><time>2017-06-21T14:54:00Z</time></trkpt><trkpt lat="42.786019" lon="-4.369350"><ele>1087.217</ele><time>2017-06-21T14:54:13Z</time></trkpt><trkpt lat="42.785491" lon="-4.368931"><ele>1088.610</ele><time>2017-06-21T14:54:18Z</time></trkpt><trkpt lat="42.784833" lon="-4.368836"><ele>1088.959</ele><time>2017-06-21T14:54:23Z</time></trkpt><trkpt lat="42.783376" lon="-4.367810"><ele>1082.991</ele><time>2017-06-21T14:54:34Z</time></trkpt><trkpt lat="42.782303" lon="-4.367542"><ele>1078.485</ele><time>2017-06-21T14:54:41Z</time></trkpt><trkpt lat="42.780190" lon="-4.366547"><ele>1073.889</ele><time>2017-06-21T14:54:55Z</time></trkpt><trkpt lat="42.779653" lon="-4.366405"><ele>1072.717</ele><time>2017-06-21T14:54:59Z</time></trkpt><trkpt lat="42.778491" lon="-4.366509"><ele>1063.408</ele><time>2017-06-21T14:55:07Z</time></trkpt><trkpt lat="42.777607" lon="-4.366322"><ele>1055.949</ele><time>2017-06-21T14:55:14Z</time></trkpt><trkpt lat="42.776737" lon="-4.366666"><ele>1041.856</ele><time>2017-06-21T14:55:23Z</time></trkpt><trkpt lat="42.775722" lon="-4.366803"><ele>1025.571</ele><time>2017-06-21T14:55:33Z</time></trkpt><trkpt lat="42.775041" lon="-4.366430"><ele>1014.883</ele><time>2017-06-21T14:55:43Z</time></trkpt><trkpt lat="42.774827" lon="-4.366722"><ele>1013.947</ele><time>2017-06-21T14:55:47Z</time></trkpt><trkpt lat="42.774492" lon="-4.367859"><ele>1007.570</ele><time>2017-06-21T14:55:58Z</time></trkpt><trkpt lat="42.774264" lon="-4.367909"><ele>1005.469</ele><time>2017-06-21T14:56:02Z</time></trkpt><trkpt lat="42.773954" lon="-4.367654"><ele>1002.481</ele><time>2017-06-21T14:56:08Z</time></trkpt><trkpt lat="42.773669" lon="-4.367619"><ele>1000.873</ele><time>2017-06-21T14:56:14Z</time></trkpt><trkpt lat="42.773091" lon="-4.369108"><ele>1002.285</ele><time>2017-06-21T14:56:32Z</time></trkpt><trkpt lat="42.772986" lon="-4.368950"><ele>999.113</ele><time>2017-06-21T14:56:36Z</time></trkpt><trkpt lat="42.772557" lon="-4.364321"><ele>992.708</ele><time>2017-06-21T14:57:00Z</time></trkpt><trkpt lat="42.772889" lon="-4.363509"><ele>991.688</ele><time>2017-06-21T14:57:09Z</time></trkpt><trkpt lat="42.772600" lon="-4.363050"><ele>995.655</ele><time>2017-06-21T14:57:19Z</time></trkpt><trkpt lat="42.772423" lon="-4.362222"><ele>1004.230</ele><time>2017-06-21T14:57:28Z</time></trkpt><trkpt lat="42.772599" lon="-4.361905"><ele>1006.382</ele><time>2017-06-21T14:57:31Z</time></trkpt><trkpt lat="42.773235" lon="-4.361429"><ele>1011.966</ele><time>2017-06-21T14:57:36Z</time></trkpt><trkpt lat="42.773736" lon="-4.360672"><ele>1015.989</ele><time>2017-06-21T14:57:40Z</time></trkpt><trkpt lat="42.774055" lon="-4.360024"><ele>1018.248</ele><time>2017-06-21T14:57:44Z</time></trkpt><trkpt lat="42.774107" lon="-4.359315"><ele>1016.570</ele><time>2017-06-21T14:57:48Z</time></trkpt><trkpt lat="42.774021" lon="-4.359004"><ele>1015.353</ele><time>2017-06-21T14:57:50Z</time></trkpt><trkpt lat="42.773176" lon="-4.357928"><ele>1013.804</ele><time>2017-06-21T14:58:00Z</time></trkpt><trkpt lat="42.772717" lon="-4.356701"><ele>1007.314</ele><time>2017-06-21T14:58:06Z</time></trkpt><trkpt lat="42.772134" lon="-4.355747"><ele>1004.608</ele><time>2017-06-21T14:58:12Z</time></trkpt><trkpt lat="42.770784" lon="-4.352681"><ele>985.556</ele><time>2017-06-21T14:58:28Z</time></trkpt><trkpt lat="42.770657" lon="-4.350370"><ele>979.883</ele><time>2017-06-21T14:58:37Z</time></trkpt><trkpt lat="42.770396" lon="-4.348575"><ele>986.018</ele><time>2017-06-21T14:58:44Z</time></trkpt><trkpt lat="42.770952" lon="-4.344182"><ele>986.440</ele><time>2017-06-21T14:58:58Z</time></trkpt><trkpt lat="42.771085" lon="-4.342244"><ele>987.954</ele><time>2017-06-21T14:59:05Z</time></trkpt><trkpt lat="42.770996" lon="-4.341326"><ele>990.177</ele><time>2017-06-21T14:59:08Z</time></trkpt><trkpt lat="42.770362" lon="-4.338848"><ele>994.866</ele><time>2017-06-21T14:59:17Z</time></trkpt><trkpt lat="42.769799" lon="-4.337606"><ele>996.898</ele><time>2017-06-21T14:59:22Z</time></trkpt><trkpt lat="42.769272" lon="-4.335593"><ele>1000.087</ele><time>2017-06-21T14:59:29Z</time></trkpt><trkpt lat="42.768101" lon="-4.333234"><ele>1002.242</ele><time>2017-06-21T14:59:41Z</time></trkpt><trkpt lat="42.768159" lon="-4.331392"><ele>999.526</ele><time>2017-06-21T14:59:50Z</time></trkpt><trkpt lat="42.767643" lon="-4.329075"><ele>994.408</ele><time>2017-06-21T15:00:01Z</time></trkpt><trkpt lat="42.767570" lon="-4.326156"><ele>987.479</ele><time>2017-06-21T15:00:15Z</time></trkpt><trkpt lat="42.766950" lon="-4.324378"><ele>984.216</ele><time>2017-06-21T15:00:27Z</time></trkpt><trkpt lat="42.766305" lon="-4.324150"><ele>986.031</ele><time>2017-06-21T15:00:32Z</time></trkpt><trkpt lat="42.765456" lon="-4.323344"><ele>995.443</ele><time>2017-06-21T15:00:39Z</time></trkpt><trkpt lat="42.765640" lon="-4.322288"><ele>1000.127</ele><time>2017-06-21T15:02:52Z</time></trkpt><trkpt lat="42.766406" lon="-4.321090"><ele>1006.970</ele><time>2017-06-21T15:03:05Z</time></trkpt><trkpt lat="42.766275" lon="-4.318760"><ele>996.559</ele><time>2017-06-21T15:03:20Z</time></trkpt><trkpt lat="42.766442" lon="-4.317075"><ele>985.641</ele><time>2017-06-21T15:03:32Z</time></trkpt><trkpt lat="42.767147" lon="-4.316292"><ele>970.373</ele><time>2017-06-21T15:03:44Z</time></trkpt><trkpt lat="42.767885" lon="-4.316794"><ele>957.185</ele><time>2017-06-21T15:03:59Z</time></trkpt><trkpt lat="42.768077" lon="-4.315525"><ele>946.513</ele><time>2017-06-21T15:04:11Z</time></trkpt><trkpt lat="42.768407" lon="-4.315231"><ele>941.408</ele><time>2017-06-21T15:04:16Z</time></trkpt><trkpt lat="42.768859" lon="-4.315120"><ele>944.918</ele><time>2017-06-21T15:04:23Z</time></trkpt><trkpt lat="42.769008" lon="-4.314116"><ele>953.825</ele><time>2017-06-21T15:04:31Z</time></trkpt><trkpt lat="42.770108" lon="-4.313766"><ele>967.310</ele><time>2017-06-21T15:04:46Z</time></trkpt><trkpt lat="42.778532" lon="-4.305850"><ele>956.312</ele><time>2017-06-21T15:07:36Z</time></trkpt><trkpt lat="42.778458" lon="-4.305269"><ele>954.566</ele><time>2017-06-21T15:07:42Z</time></trkpt><trkpt lat="42.777855" lon="-4.304456"><ele>951.339</ele><time>2017-06-21T15:07:51Z</time></trkpt><trkpt lat="42.778126" lon="-4.303251"><ele>946.678</ele><time>2017-06-21T15:08:01Z</time></trkpt><trkpt lat="42.778049" lon="-4.302639"><ele>949.060</ele><time>2017-06-21T15:08:06Z</time></trkpt><trkpt lat="42.777562" lon="-4.302036"><ele>954.633</ele><time>2017-06-21T15:08:12Z</time></trkpt><trkpt lat="42.777233" lon="-4.301286"><ele>956.523</ele><time>2017-06-21T15:08:17Z</time></trkpt><trkpt lat="42.776521" lon="-4.298105"><ele>954.115</ele><time>2017-06-21T15:08:35Z</time></trkpt><trkpt lat="42.776631" lon="-4.296660"><ele>954.808</ele><time>2017-06-21T15:09:27Z</time></trkpt><trkpt lat="42.777566" lon="-4.293819"><ele>933.494</ele><time>2017-06-21T15:09:42Z</time></trkpt><trkpt lat="42.777754" lon="-4.290607"><ele>925.181</ele><time>2017-06-21T15:10:02Z</time></trkpt><trkpt lat="42.778467" lon="-4.289581"><ele>922.726</ele><time>2017-06-21T15:11:22Z</time></trkpt><trkpt lat="42.778688" lon="-4.288617"><ele>920.748</ele><time>2017-06-21T15:11:34Z</time></trkpt><trkpt lat="42.778597" lon="-4.287931"><ele>922.982</ele><time>2017-06-21T15:13:08Z</time></trkpt><trkpt lat="42.780192" lon="-4.287453"><ele>917.055</ele><time>2017-06-21T15:13:21Z</time></trkpt><trkpt lat="42.780864" lon="-4.287021"><ele>914.054</ele><time>2017-06-21T15:13:29Z</time></trkpt><trkpt lat="42.780913" lon="-4.287690"><ele>914.986</ele><time>2017-06-21T15:13:35Z</time></trkpt><trkpt lat="42.781553" lon="-4.288531"><ele>916.416</ele><time>2017-06-21T15:13:41Z</time></trkpt><trkpt lat="42.782683" lon="-4.289191"><ele>916.076</ele><time>2017-06-21T15:13:50Z</time></trkpt><trkpt lat="42.783484" lon="-4.289151"><ele>918.513</ele><time>2017-06-21T15:14:01Z</time></trkpt><trkpt lat="42.784286" lon="-4.289385"><ele>919.908</ele><time>2017-06-21T15:14:09Z</time></trkpt><trkpt lat="42.785155" lon="-4.287901"><ele>925.682</ele><time>2017-06-21T15:15:11Z</time></trkpt><trkpt lat="42.786515" lon="-4.286849"><ele>920.849</ele><time>2017-06-21T15:15:24Z</time></trkpt><trkpt lat="42.787955" lon="-4.284851"><ele>934.274</ele><time>2017-06-21T15:15:35Z</time></trkpt><trkpt lat="42.788205" lon="-4.283866"><ele>937.156</ele><time>2017-06-21T15:15:41Z</time></trkpt><trkpt lat="42.789323" lon="-4.281371"><ele>959.180</ele><time>2017-06-21T15:15:59Z</time></trkpt><trkpt lat="42.789948" lon="-4.283029"><ele>961.933</ele><time>2017-06-21T15:16:13Z</time></trkpt><trkpt lat="42.790306" lon="-4.283088"><ele>963.152</ele><time>2017-06-21T15:16:19Z</time></trkpt><trkpt lat="42.790480" lon="-4.283322"><ele>964.764</ele><time>2017-06-21T15:16:23Z</time></trkpt><trkpt lat="42.791799" lon="-4.287650"><ele>984.148</ele><time>2017-06-21T15:16:43Z</time></trkpt><trkpt lat="42.792204" lon="-4.290473"><ele>984.761</ele><time>2017-06-21T15:16:57Z</time></trkpt><trkpt lat="42.793652" lon="-4.291066"><ele>984.317</ele><time>2017-06-21T15:17:09Z</time></trkpt><trkpt lat="42.793789" lon="-4.290921"><ele>979.908</ele><time>2017-06-21T15:17:12Z</time></trkpt><trkpt lat="42.793363" lon="-4.290376"><ele>976.545</ele><time>2017-06-21T15:17:21Z</time></trkpt><trkpt lat="42.793755" lon="-4.290729"><ele>975.592</ele><time>2017-06-21T15:17:26Z</time></trkpt><trkpt lat="42.794040" lon="-4.290675"><ele>969.577</ele><time>2017-06-21T15:17:30Z</time></trkpt><trkpt lat="42.793684" lon="-4.290148"><ele>963.989</ele><time>2017-06-21T15:17:37Z</time></trkpt><trkpt lat="42.793273" lon="-4.288974"><ele>954.013</ele><time>2017-06-21T15:17:44Z</time></trkpt><trkpt lat="42.793186" lon="-4.288194"><ele>948.376</ele><time>2017-06-21T15:17:50Z</time></trkpt><trkpt lat="42.795601" lon="-4.287072"><ele>927.815</ele><time>2017-06-21T15:18:04Z</time></trkpt><trkpt lat="42.797138" lon="-4.285534"><ele>941.557</ele><time>2017-06-21T15:18:15Z</time></trkpt><trkpt lat="42.797076" lon="-4.285134"><ele>940.635</ele><time>2017-06-21T15:18:21Z</time></trkpt><trkpt lat="42.796667" lon="-4.285958"><ele>931.986</ele><time>2017-06-21T15:18:30Z</time></trkpt><trkpt lat="42.796496" lon="-4.286022"><ele>929.714</ele><time>2017-06-21T15:18:33Z</time></trkpt><trkpt lat="42.796215" lon="-4.285838"><ele>926.708</ele><time>2017-06-21T15:18:37Z</time></trkpt><trkpt lat="42.796121" lon="-4.285292"><ele>923.214</ele><time>2017-06-21T15:18:42Z</time></trkpt><trkpt lat="42.796221" lon="-4.284339"><ele>917.531</ele><time>2017-06-21T15:18:49Z</time></trkpt><trkpt lat="42.796013" lon="-4.284114"><ele>913.466</ele><time>2017-06-21T15:18:53Z</time></trkpt><trkpt lat="42.795836" lon="-4.284298"><ele>913.518</ele><time>2017-06-21T15:18:57Z</time></trkpt><trkpt lat="42.795503" lon="-4.285627"><ele>909.152</ele><time>2017-06-21T15:19:10Z</time></trkpt><trkpt lat="42.796455" lon="-4.273599"><ele>902.525</ele><time>2017-06-21T15:20:00Z</time></trkpt><trkpt lat="42.796450" lon="-4.273045"><ele>902.774</ele><time>2017-06-21T15:20:05Z</time></trkpt><trkpt lat="42.796211" lon="-4.273107"><ele>901.936</ele><time>2017-06-21T15:20:12Z</time></trkpt><trkpt lat="42.796154" lon="-4.272929"><ele>902.116</ele><time>2017-06-21T15:20:17Z</time></trkpt><trkpt lat="42.796291" lon="-4.272902"><ele>902.476</ele><time>2017-06-21T15:22:35Z</time></trkpt></trkseg></trk></gpx>